createdAt,value
2018-09-01T00:01:01.005Z,24.16
2018-09-01T00:02:10.453Z,24.1
2018-09-01T00:03:20.149Z,24.08
2018-09-01T00:04:29.888Z,24.22
2018-09-01T00:05:39.058Z,24.21
2018-09-01T00:06:49.020Z,24.16
2018-09-01T00:07:58.443Z,24.09
2018-09-01T00:09:07.605Z,24.18
2018-09-01T00:10:16.782Z,24.1
2018-09-01T00:11:26.487Z,24.06
2018-09-01T00:12:35.913Z,24.09
2018-09-01T00:13:45.387Z,24.16
2018-09-01T00:14:54.813Z,24.1
2018-09-01T00:16:04.267Z,24.21
2018-09-01T00:17:13.712Z,24.18
2018-09-01T00:18:23.418Z,24.06
2018-09-01T00:19:33.363Z,24.18
2018-09-01T00:20:43.064Z,24.09
2018-09-01T00:21:52.496Z,24.22
2018-09-01T00:23:01.402Z,24.21
2018-09-01T00:24:10.325Z,24.12
2018-09-01T00:25:19.750Z,24.08
2018-09-01T00:26:29.423Z,24.05
2018-09-01T00:27:38.577Z,24.12
2018-09-01T00:28:48.018Z,24.06
2018-09-01T00:29:57.455Z,24.2
2018-09-01T00:31:06.899Z,24.15
2018-09-01T00:32:16.393Z,24.13
2018-09-01T00:33:26.065Z,24.13
2018-09-01T00:34:35.780Z,24.13
2018-09-01T00:35:44.953Z,24.06
2018-09-01T00:36:53.897Z,24.06
2018-09-01T00:38:03.611Z,24.06
2018-09-01T00:39:13.041Z,24.16
2018-09-01T00:40:22.463Z,24.06
2018-09-01T00:41:31.896Z,24.18
2018-09-01T00:42:41.846Z,24.16
2018-09-01T00:43:51.024Z,24.15
2018-09-01T00:45:00.968Z,24.16
2018-09-01T00:46:10.136Z,24.18
2018-09-01T00:47:19.572Z,24.08
2018-09-01T00:48:29.042Z,24.18
2018-09-01T00:49:39.091Z,24.2
2018-09-01T00:50:48.782Z,24.05
2018-09-01T00:51:57.984Z,24.15
2018-09-01T00:53:07.676Z,24.09
2018-09-01T00:54:16.847Z,24.18
2018-09-01T00:55:25.765Z,24.15
2018-09-01T00:56:35.190Z,24.03
2018-09-01T00:57:44.684Z,24.06
2018-09-01T00:58:54.638Z,24.13
2018-09-01T01:00:04.138Z,24.13
2018-09-01T01:01:13.569Z,24.18
2018-09-01T01:02:22.743Z,24.05
2018-09-01T01:03:32.730Z,24.12
2018-09-01T01:04:42.177Z,24.1
2018-09-01T01:05:51.108Z,24.09
2018-09-01T01:07:00.791Z,24
2018-09-01T01:08:10.492Z,24.05
2018-09-01T01:09:20.205Z,23.97
2018-09-01T01:10:28.882Z,24.08
2018-09-01T01:11:38.326Z,24.15
2018-09-01T01:12:47.997Z,24.08
2018-09-01T01:13:57.759Z,24.09
2018-09-01T01:15:07.226Z,24.03
2018-09-01T01:16:16.664Z,24.09
2018-09-01T01:17:25.561Z,24.16
2018-09-01T01:18:34.982Z,24.13
2018-09-01T01:19:44.158Z,24.12
2018-09-01T01:20:53.585Z,24.05
2018-09-01T01:22:02.767Z,24.03
2018-09-01T01:23:12.196Z,24.1
2018-09-01T01:24:22.154Z,24.12
2018-09-01T01:25:31.336Z,24.12
2018-09-01T01:26:40.011Z,24.16
2018-09-01T01:27:49.456Z,24.08
2018-09-01T01:28:59.139Z,24.08
2018-09-01T01:30:09.100Z,24.08
2018-09-01T01:31:18.526Z,24.16
2018-09-01T01:32:28.214Z,24.2
2018-09-01T01:33:37.643Z,24.03
2018-09-01T01:34:47.598Z,24.08
2018-09-01T01:35:56.507Z,24.12
2018-09-01T01:37:05.953Z,24.1
2018-09-01T01:38:15.158Z,24.09
2018-09-01T01:39:24.581Z,24.12
2018-09-01T01:40:33.779Z,24.1
2018-09-01T01:41:43.244Z,24.13
2018-09-01T01:42:52.399Z,24.09
2018-09-01T01:44:02.087Z,24.06
2018-09-01T01:45:11.547Z,24.09
2018-09-01T01:46:20.729Z,24.12
2018-09-01T01:47:29.962Z,24.12
2018-09-01T01:48:39.130Z,24.06
2018-09-01T01:49:48.260Z,24.13
2018-09-01T01:50:57.184Z,24.09
2018-09-01T01:52:06.366Z,24.13
2018-09-01T01:53:15.816Z,24.1
2018-09-01T01:54:25.524Z,24.1
2018-09-01T01:55:35.477Z,24.03
2018-09-01T01:56:44.649Z,24.13
2018-09-01T01:57:53.820Z,24.1
2018-09-01T01:59:03.519Z,24.13
2018-09-01T02:00:13.203Z,24.08
2018-09-01T02:01:22.131Z,24.1
2018-09-01T02:02:31.561Z,24.03
2018-09-01T02:03:41.246Z,24.03
2018-09-01T02:04:50.941Z,24.13
2018-09-01T02:06:00.624Z,24.1
2018-09-01T02:07:09.543Z,24.13
2018-09-01T02:08:18.963Z,23.95
2018-09-01T02:09:28.127Z,24.12
2018-09-01T02:10:37.050Z,24.1
2018-09-01T02:11:46.213Z,24.09
2018-09-01T02:12:55.391Z,24.13
2018-09-01T02:14:04.828Z,24.1
2018-09-01T02:15:14.007Z,24.1
2018-09-01T02:16:23.199Z,24
2018-09-01T02:17:32.943Z,24.1
2018-09-01T02:18:42.650Z,24.12
2018-09-01T02:19:52.342Z,24.12
2018-09-01T02:21:01.769Z,24.05
2018-09-01T02:22:10.940Z,24.08
2018-09-01T02:23:20.378Z,24.1
2018-09-01T02:24:30.072Z,24.06
2018-09-01T02:25:39.263Z,24.03
2018-09-01T02:26:48.961Z,24.09
2018-09-01T02:27:58.663Z,24.1
2018-09-01T02:29:08.106Z,24.12
2018-09-01T02:30:17.285Z,24.08
2018-09-01T02:31:26.722Z,23.93
2018-09-01T02:32:36.158Z,24.08
2018-09-01T02:33:45.856Z,24.12
2018-09-01T02:34:55.303Z,24.06
2018-09-01T02:36:04.470Z,24.08
2018-09-01T02:37:14.441Z,24.05
2018-09-01T02:38:23.355Z,24.09
2018-09-01T02:39:32.778Z,24.1
2018-09-01T02:40:42.740Z,24.03
2018-09-01T02:41:52.187Z,24.08
2018-09-01T02:43:01.877Z,24.02
2018-09-01T02:44:11.571Z,24.06
2018-09-01T02:45:20.764Z,24.1
2018-09-01T02:46:30.450Z,24
2018-09-01T02:47:39.866Z,24.1
2018-09-01T02:48:49.288Z,24.06
2018-09-01T02:49:58.748Z,24.05
2018-09-01T02:51:07.932Z,24.09
2018-09-01T02:52:17.370Z,24.08
2018-09-01T02:53:26.803Z,24.06
2018-09-01T02:54:36.767Z,24.08
2018-09-01T02:55:46.464Z,24
2018-09-01T02:56:55.895Z,24.05
2018-09-01T02:58:05.087Z,24.1
2018-09-01T02:59:14.521Z,24.1
2018-09-01T03:00:23.988Z,24.05
2018-09-01T03:01:33.178Z,24.05
2018-09-01T03:02:42.885Z,24.08
2018-09-01T03:03:52.833Z,24.06
2018-09-01T03:05:02.517Z,24.08
2018-09-01T03:06:12.206Z,24.06
2018-09-01T03:07:21.367Z,24.03
2018-09-01T03:08:30.794Z,24.06
2018-09-01T03:09:40.228Z,24.06
2018-09-01T03:10:49.157Z,24.08
2018-09-01T03:11:58.361Z,23.98
2018-09-01T03:13:07.276Z,24.02
2018-09-01T03:14:17.291Z,24.03
2018-09-01T03:15:26.974Z,24.05
2018-09-01T03:16:36.691Z,24.06
2018-09-01T03:17:46.108Z,24.05
2018-09-01T03:18:55.278Z,24.09
2018-09-01T03:20:04.463Z,23.93
2018-09-01T03:21:13.640Z,24.03
2018-09-01T03:22:23.095Z,24.08
2018-09-01T03:23:32.542Z,24
2018-09-01T03:24:41.969Z,24.06
2018-09-01T03:25:51.650Z,24.06
2018-09-01T03:27:01.587Z,24.1
2018-09-01T03:28:11.526Z,24.05
2018-09-01T03:29:20.435Z,24.09
2018-09-01T03:30:29.615Z,24.05
2018-09-01T03:31:39.043Z,24.03
2018-09-01T03:32:48.228Z,24.05
2018-09-01T03:33:57.916Z,24.02
2018-09-01T03:35:07.867Z,24.06
2018-09-01T03:36:17.308Z,24.06
2018-09-01T03:37:27.300Z,24.1
2018-09-01T03:38:36.970Z,24.08
2018-09-01T03:39:46.910Z,24.02
2018-09-01T03:40:56.076Z,24.06
2018-09-01T03:42:05.805Z,23.93
2018-09-01T03:43:15.241Z,24.09
2018-09-01T03:44:24.507Z,24.05
2018-09-01T03:45:34.208Z,24.12
2018-09-01T03:46:43.474Z,24.02
2018-09-01T03:47:53.412Z,24.02
2018-09-01T03:49:02.840Z,24.06
2018-09-01T03:50:12.533Z,24.03
2018-09-01T03:51:21.694Z,24.06
2018-09-01T03:52:31.123Z,23.93
2018-09-01T03:53:40.553Z,24.02
2018-09-01T03:54:50.032Z,24
2018-09-01T03:55:59.729Z,23.94
2018-09-01T03:57:08.900Z,24.03
2018-09-01T03:58:18.316Z,23.97
2018-09-01T03:59:27.753Z,24.05
2018-09-01T04:00:36.692Z,24
2018-09-01T04:01:46.387Z,24.1
2018-09-01T04:02:55.824Z,23.95
2018-09-01T04:04:05.024Z,24.08
2018-09-01T04:05:14.235Z,24.03
2018-09-01T04:06:23.459Z,24.06
2018-09-01T04:07:33.158Z,23.95
2018-09-01T04:08:42.329Z,23.94
2018-09-01T04:09:51.498Z,24.08
2018-09-01T04:11:01.186Z,24.02
2018-09-01T04:12:10.613Z,23.91
2018-09-01T04:13:20.294Z,24.05
2018-09-01T04:14:29.468Z,24.03
2018-09-01T04:15:39.414Z,24.05
2018-09-01T04:16:49.100Z,23.93
2018-09-01T04:17:58.520Z,23.9
2018-09-01T04:19:08.201Z,24.08
2018-09-01T04:20:17.122Z,23.95
2018-09-01T04:21:26.376Z,24.03
2018-09-01T04:22:35.565Z,24.05
2018-09-01T04:23:44.482Z,24
2018-09-01T04:24:54.455Z,23.97
2018-09-01T04:26:03.884Z,23.95
2018-09-01T04:27:13.490Z,24.02
2018-09-01T04:28:23.182Z,23.94
2018-09-01T04:29:33.125Z,23.94
2018-09-01T04:30:42.288Z,24
2018-09-01T04:31:51.761Z,24.02
2018-09-01T04:33:01.008Z,24.05
2018-09-01T04:34:10.194Z,24.02
2018-09-01T04:35:19.888Z,23.98
2018-09-01T04:36:29.584Z,23.94
2018-09-01T04:37:39.262Z,24.06
2018-09-01T04:38:48.944Z,24.02
2018-09-01T04:39:58.415Z,23.93
2018-09-01T04:41:07.353Z,24
2018-09-01T04:42:16.529Z,24
2018-09-01T04:43:25.990Z,23.93
2018-09-01T04:44:35.673Z,23.91
2018-09-01T04:45:44.903Z,23.93
2018-09-01T04:46:54.153Z,23.98
2018-09-01T04:48:04.223Z,23.93
2018-09-01T04:49:13.653Z,23.9
2018-09-01T04:50:23.351Z,24.05
2018-09-01T04:51:32.794Z,23.94
2018-09-01T04:52:42.278Z,23.98
2018-09-01T04:53:51.705Z,24.05
2018-09-01T04:55:00.904Z,23.93
2018-09-01T04:56:10.091Z,24.03
2018-09-01T04:57:19.575Z,23.98
2018-09-01T04:58:29.038Z,23.93
2018-09-01T04:59:38.739Z,23.95
2018-09-01T05:00:48.487Z,23.94
2018-09-01T05:01:58.270Z,24.02
2018-09-01T05:03:07.226Z,23.94
2018-09-01T05:04:16.913Z,23.97
2018-09-01T05:05:26.631Z,23.88
2018-09-01T05:06:36.324Z,23.95
2018-09-01T05:07:45.242Z,24.06
2018-09-01T05:08:54.985Z,24.05
2018-09-01T05:10:04.692Z,24.05
2018-09-01T05:11:14.128Z,23.93
2018-09-01T05:12:23.550Z,24.06
2018-09-01T05:13:32.488Z,23.95
2018-09-01T05:14:41.656Z,24.03
2018-09-01T05:15:50.574Z,24
2018-09-01T05:16:59.742Z,23.91
2018-09-01T05:18:09.487Z,23.93
2018-09-01T05:19:18.911Z,24.05
2018-09-01T05:20:28.355Z,23.94
2018-09-01T05:21:37.786Z,23.94
2018-09-01T05:22:47.754Z,23.93
2018-09-01T05:23:57.896Z,23.91
2018-09-01T05:25:06.970Z,24.02
2018-09-01T05:26:16.663Z,24.02
2018-09-01T05:27:26.347Z,23.98
2018-09-01T05:28:36.330Z,23.93
2018-09-01T05:29:45.502Z,24
2018-09-01T05:30:54.698Z,23.93
2018-09-01T05:32:04.176Z,23.95
2018-09-01T05:33:13.602Z,23.98
2018-09-01T05:34:23.364Z,23.94
2018-09-01T05:35:32.559Z,23.95
2018-09-01T05:36:42.930Z,23.95
2018-09-01T05:37:52.735Z,24.05
2018-09-01T05:39:01.893Z,23.94
2018-09-01T05:40:11.072Z,23.93
2018-09-01T05:41:20.823Z,23.97
2018-09-01T05:42:29.987Z,24.02
2018-09-01T05:43:39.868Z,24
2018-09-01T05:44:49.705Z,23.95
2018-09-01T05:45:59.139Z,23.94
2018-09-01T05:47:08.584Z,24
2018-09-01T05:48:18.024Z,23.93
2018-09-01T05:49:27.764Z,24.02
2018-09-01T05:50:37.251Z,23.9
2018-09-01T05:51:47.090Z,23.98
2018-09-01T05:52:56.516Z,23.98
2018-09-01T05:54:05.963Z,23.95
2018-09-01T05:55:15.138Z,23.91
2018-09-01T05:56:24.851Z,23.98
2018-09-01T05:57:34.013Z,24.03
2018-09-01T05:58:43.956Z,23.91
2018-09-01T05:59:53.905Z,23.98
2018-09-01T06:01:03.858Z,23.91
2018-09-01T06:02:13.568Z,23.95
2018-09-01T06:03:22.496Z,24.05
2018-09-01T06:04:31.977Z,23.98
2018-09-01T06:05:41.914Z,24.03
2018-09-01T06:06:51.150Z,23.93
2018-09-01T06:08:00.068Z,23.93
2018-09-01T06:09:09.806Z,23.98
2018-09-01T06:10:18.722Z,23.93
2018-09-01T06:11:27.384Z,23.93
2018-09-01T06:12:37.496Z,23.88
2018-09-01T06:13:46.938Z,23.98
2018-09-01T06:14:56.382Z,23.95
2018-09-01T06:16:05.810Z,24.05
2018-09-01T06:17:14.468Z,23.94
2018-09-01T06:18:23.637Z,23.91
2018-09-01T06:19:33.388Z,24
2018-09-01T06:20:42.840Z,24.03
2018-09-01T06:21:52.263Z,23.94
2018-09-01T06:23:01.962Z,23.93
2018-09-01T06:24:11.387Z,23.93
2018-09-01T06:25:21.111Z,23.94
2018-09-01T06:26:30.582Z,23.91
2018-09-01T06:27:40.016Z,23.97
2018-09-01T06:28:49.196Z,23.94
2018-09-01T06:29:58.380Z,24.06
2018-09-01T06:31:07.854Z,23.97
2018-09-01T06:32:17.311Z,23.94
2018-09-01T06:33:26.487Z,23.94
2018-09-01T06:34:35.944Z,23.95
2018-09-01T06:35:45.734Z,23.98
2018-09-01T06:36:55.161Z,23.93
2018-09-01T06:38:04.852Z,24.06
2018-09-01T06:39:14.300Z,23.91
2018-09-01T06:40:24.033Z,23.94
2018-09-01T06:41:33.495Z,23.93
2018-09-01T06:42:43.110Z,24
2018-09-01T06:43:52.287Z,23.91
2018-09-01T06:45:01.979Z,23.98
2018-09-01T06:46:10.917Z,23.91
2018-09-01T06:47:20.357Z,23.98
2018-09-01T06:48:29.279Z,23.91
2018-09-01T06:49:38.730Z,23.97
2018-09-01T06:50:48.164Z,23.9
2018-09-01T06:51:57.597Z,24.05
2018-09-01T06:53:06.837Z,24
2018-09-01T06:54:16.270Z,23.9
2018-09-01T06:55:25.197Z,24
2018-09-01T06:56:34.898Z,23.97
2018-09-01T06:57:44.389Z,24
2018-09-01T06:58:54.083Z,23.91
2018-09-01T07:00:04.065Z,23.98
2018-09-01T07:01:13.241Z,23.93
2018-09-01T07:02:22.943Z,23.91
2018-09-01T07:03:32.674Z,23.91
2018-09-01T07:04:41.614Z,24.05
2018-09-01T07:05:51.310Z,24.03
2018-09-01T07:07:00.487Z,24.05
2018-09-01T07:08:09.674Z,23.97
2018-09-01T07:09:18.873Z,23.97
2018-09-01T07:10:28.052Z,23.91
2018-09-01T07:11:36.712Z,23.98
2018-09-01T07:12:45.633Z,23.93
2018-09-01T07:13:55.354Z,24.06
2018-09-01T07:15:04.323Z,23.93
2018-09-01T07:16:13.756Z,23.91
2018-09-01T07:17:23.223Z,23.98
2018-09-01T07:18:32.403Z,23.94
2018-09-01T07:19:41.580Z,23.93
2018-09-01T07:20:51.257Z,23.93
2018-09-01T07:22:00.434Z,23.98
2018-09-01T07:23:09.856Z,23.95
2018-09-01T07:24:19.290Z,23.9
2018-09-01T07:25:28.462Z,24
2018-09-01T07:26:37.715Z,23.94
2018-09-01T07:27:47.163Z,23.95
2018-09-01T07:28:56.865Z,23.98
2018-09-01T07:30:06.608Z,23.94
2018-09-01T07:31:18.165Z,23.97
2018-09-01T07:32:29.523Z,23.93
2018-09-01T07:33:39.226Z,23.93
2018-09-01T07:34:48.921Z,24.02
2018-09-01T07:35:58.679Z,24
2018-09-01T07:37:08.113Z,23.94
2018-09-01T07:38:17.817Z,23.98
2018-09-01T07:39:27.120Z,23.98
2018-09-01T07:40:36.304Z,24
2018-09-01T07:41:46.041Z,24.02
2018-09-01T07:42:55.475Z,23.94
2018-09-01T07:44:04.650Z,23.98
2018-09-01T07:45:14.331Z,24
2018-09-01T07:46:23.511Z,24.02
2018-09-01T07:47:32.679Z,23.95
2018-09-01T07:48:41.899Z,23.93
2018-09-01T07:49:51.856Z,23.94
2018-09-01T07:51:01.114Z,24
2018-09-01T07:52:10.552Z,24.02
2018-09-01T07:53:19.509Z,24.05
2018-09-01T07:54:29.032Z,24.03
2018-09-01T07:55:39.155Z,24.02
2018-09-01T07:56:48.866Z,23.95
2018-09-01T07:57:58.556Z,24.06
2018-09-01T07:59:07.726Z,23.94
2018-09-01T08:00:16.896Z,24.02
2018-09-01T08:01:26.405Z,24.03
2018-09-01T08:02:35.595Z,23.94
2018-09-01T08:03:45.310Z,23.98
2018-09-01T08:04:54.739Z,24
2018-09-01T08:06:04.707Z,23.97
2018-09-01T08:07:13.883Z,24
2018-09-01T08:08:22.822Z,23.97
2018-09-01T08:09:31.997Z,23.94
2018-09-01T08:10:41.241Z,24.05
2018-09-01T08:11:51.205Z,24.06
2018-09-01T08:13:00.376Z,24.08
2018-09-01T08:14:10.615Z,24.08
2018-09-01T08:15:20.851Z,23.98
2018-09-01T08:16:30.595Z,23.94
2018-09-01T08:17:40.064Z,24.08
2018-09-01T08:18:49.513Z,23.97
2018-09-01T08:19:58.941Z,24.08
2018-09-01T08:21:08.698Z,23.95
2018-09-01T08:22:18.407Z,23.97
2018-09-01T08:23:27.838Z,23.94
2018-09-01T08:24:37.289Z,24.02
2018-09-01T08:25:46.724Z,24.06
2018-09-01T08:26:56.167Z,24.03
2018-09-01T08:28:05.859Z,24.09
2018-09-01T08:29:15.563Z,24.03
2018-09-01T08:30:24.994Z,23.9
2018-09-01T08:31:34.690Z,24.06
2018-09-01T08:32:44.424Z,24.05
2018-09-01T08:33:54.269Z,23.94
2018-09-01T08:35:03.775Z,23.97
2018-09-01T08:36:13.243Z,23.98
2018-09-01T08:37:22.169Z,24.08
2018-09-01T08:38:31.342Z,23.94
2018-09-01T08:39:41.331Z,24.06
2018-09-01T08:40:51.015Z,23.98
2018-09-01T08:42:00.188Z,23.94
2018-09-01T08:43:09.105Z,23.94
2018-09-01T08:44:18.816Z,23.94
2018-09-01T08:45:28.316Z,23.97
2018-09-01T08:46:37.616Z,24.08
2018-09-01T08:47:46.804Z,24.05
2018-09-01T08:48:55.963Z,24.08
2018-09-01T08:50:05.151Z,24.03
2018-09-01T08:51:14.610Z,24.02
2018-09-01T08:52:24.083Z,24.08
2018-09-01T08:53:33.773Z,24.09
2018-09-01T08:54:43.190Z,24.03
2018-09-01T08:55:52.605Z,24.08
2018-09-01T08:57:02.039Z,23.97
2018-09-01T08:58:11.490Z,24.02
2018-09-01T08:59:21.167Z,23.95
2018-09-01T09:00:30.862Z,23.97
2018-09-01T09:01:40.026Z,23.94
2018-09-01T09:02:49.735Z,24.08
2018-09-01T09:03:58.933Z,24.06
2018-09-01T09:05:08.369Z,24.02
2018-09-01T09:06:17.790Z,24.03
2018-09-01T09:07:26.952Z,24.05
2018-09-01T09:08:36.133Z,23.97
2018-09-01T09:09:45.344Z,24.06
2018-09-01T09:10:54.807Z,24
2018-09-01T09:12:04.240Z,23.93
2018-09-01T09:13:13.919Z,24.06
2018-09-01T09:14:23.447Z,24.03
2018-09-01T09:15:32.627Z,24.02
2018-09-01T09:16:42.073Z,24.06
2018-09-01T09:17:51.531Z,24.02
2018-09-01T09:19:00.984Z,24.05
2018-09-01T09:20:10.472Z,24.03
2018-09-01T09:21:20.177Z,24.09
2018-09-01T09:22:29.603Z,24.05
2018-09-01T09:23:38.766Z,24.05
2018-09-01T09:24:48.204Z,24.02
2018-09-01T09:25:57.659Z,24.02
2018-09-01T09:27:07.360Z,24.08
2018-09-01T09:28:17.315Z,24.05
2018-09-01T09:29:27.266Z,24.02
2018-09-01T09:30:36.975Z,24.09
2018-09-01T09:31:46.450Z,23.98
2018-09-01T09:32:56.147Z,23.97
2018-09-01T09:34:05.523Z,24.03
2018-09-01T09:35:14.713Z,24.06
2018-09-01T09:36:23.892Z,24.06
2018-09-01T09:37:33.328Z,24.09
2018-09-01T09:38:42.505Z,24.03
2018-09-01T09:39:51.420Z,24.06
2018-09-01T09:41:00.906Z,24
2018-09-01T09:42:10.068Z,24.09
2018-09-01T09:43:19.761Z,24.08
2018-09-01T09:44:28.936Z,24.02
2018-09-01T09:45:38.415Z,24.09
2018-09-01T09:46:47.836Z,24.02
2018-09-01T09:47:57.007Z,24.06
2018-09-01T09:49:06.689Z,24.06
2018-09-01T09:50:16.649Z,24.05
2018-09-01T09:51:26.334Z,24.09
2018-09-01T09:52:35.756Z,24.05
2018-09-01T09:53:45.426Z,24.02
2018-09-01T09:54:54.848Z,24.1
2018-09-01T09:56:04.022Z,24
2018-09-01T09:57:13.451Z,24.09
2018-09-01T09:58:23.477Z,24.05
2018-09-01T09:59:33.192Z,24.03
2018-09-01T10:00:42.631Z,24.03
2018-09-01T10:01:52.133Z,24.08
2018-09-01T10:03:02.049Z,24
2018-09-01T10:04:11.510Z,24.03
2018-09-01T10:05:21.734Z,24.08
2018-09-01T10:06:31.241Z,24.08
2018-09-01T10:07:40.167Z,24.06
2018-09-01T10:08:49.851Z,24.06
2018-09-01T10:09:58.523Z,24.08
2018-09-01T10:11:08.288Z,24.08
2018-09-01T10:12:17.861Z,24.03
2018-09-01T10:13:27.630Z,24.05
2018-09-01T10:14:37.582Z,24.02
2018-09-01T10:15:46.843Z,24.08
2018-09-01T10:16:57.021Z,24.1
2018-09-01T10:18:05.937Z,24.03
2018-09-01T10:19:15.890Z,24.05
2018-09-01T10:20:25.373Z,24.1
2018-09-01T10:21:34.385Z,24.08
2018-09-01T10:22:43.832Z,24.08
2018-09-01T10:23:53.254Z,24.05
2018-09-01T10:25:02.942Z,23.97
2018-09-01T10:26:11.879Z,24.05
2018-09-01T10:27:21.332Z,24.06
2018-09-01T10:28:30.507Z,24
2018-09-01T10:29:39.953Z,24.06
2018-09-01T10:30:49.382Z,24.06
2018-09-01T10:31:58.804Z,24.08
2018-09-01T10:33:08.752Z,24.08
2018-09-01T10:34:17.961Z,24.1
2018-09-01T10:35:27.641Z,24.05
2018-09-01T10:36:36.824Z,24.08
2018-09-01T10:37:46.538Z,24.05
2018-09-01T10:38:55.836Z,24.09
2018-09-01T10:40:05.263Z,24.06
2018-09-01T10:41:14.698Z,24.08
2018-09-01T10:42:24.149Z,24.09
2018-09-01T10:43:33.617Z,24.03
2018-09-01T10:44:43.066Z,24.03
2018-09-01T10:45:52.236Z,24.03
2018-09-01T10:47:02.219Z,24.08
2018-09-01T10:48:11.683Z,24.08
2018-09-01T10:49:20.923Z,24.05
2018-09-01T10:50:30.357Z,24.05
2018-09-01T10:51:39.798Z,24.09
2018-09-01T10:52:49.314Z,24.13
2018-09-01T10:53:58.771Z,24.09
2018-09-01T10:55:08.207Z,24.06
2018-09-01T10:56:17.657Z,24
2018-09-01T10:57:27.620Z,24.03
2018-09-01T10:58:36.821Z,23.93
2018-09-01T10:59:47.355Z,24.08
2018-09-01T11:00:57.730Z,24.08
2018-09-01T11:02:07.450Z,24.05
2018-09-01T11:03:17.053Z,24.1
2018-09-01T11:04:26.239Z,24.08
2018-09-01T11:05:35.618Z,24.05
2018-09-01T11:06:44.945Z,24.09
2018-09-01T11:07:53.891Z,24.09
2018-09-01T11:09:03.608Z,24.08
2018-09-01T11:10:12.777Z,24.13
2018-09-01T11:11:22.241Z,24.03
2018-09-01T11:12:31.413Z,24.09
2018-09-01T11:13:40.596Z,24.09
2018-09-01T11:14:49.774Z,24.08
2018-09-01T11:15:59.466Z,24.08
2018-09-01T11:17:08.636Z,24.1
2018-09-01T11:18:18.359Z,24.05
2018-09-01T11:19:27.831Z,24.12
2018-09-01T11:20:37.328Z,24.13
2018-09-01T11:21:46.653Z,24.1
2018-09-01T11:22:55.829Z,24.12
2018-09-01T11:24:05.535Z,24.09
2018-09-01T11:25:14.989Z,24.09
2018-09-01T11:26:24.965Z,24.12
2018-09-01T11:27:34.939Z,24.06
2018-09-01T11:28:45.223Z,24.05
2018-09-01T11:29:54.929Z,24.09
2018-09-01T11:31:04.607Z,24.08
2018-09-01T11:32:14.313Z,24.1
2018-09-01T11:33:23.760Z,24.12
2018-09-01T11:34:33.575Z,24.05
2018-09-01T11:35:43.036Z,24.1
2018-09-01T11:36:53.332Z,24.1
2018-09-01T11:38:03.496Z,24.06
2018-09-01T11:39:12.667Z,24.09
2018-09-01T11:40:22.487Z,24.13
2018-09-01T11:41:31.666Z,24.1
2018-09-01T11:42:41.143Z,24.06
2018-09-01T11:43:51.316Z,23.94
2018-09-01T11:45:00.776Z,24.1
2018-09-01T11:46:10.218Z,24.18
2018-09-01T11:47:19.402Z,24.06
2018-09-01T11:48:28.974Z,24.12
2018-09-01T11:49:38.547Z,24.08
2018-09-01T11:50:48.283Z,24.09
2018-09-01T11:51:57.763Z,24.12
2018-09-01T11:53:07.378Z,24.1
2018-09-01T11:54:17.439Z,24.13
2018-09-01T11:55:26.374Z,24.09
2018-09-01T11:56:36.359Z,24.02
2018-09-01T11:57:46.064Z,24.08
2018-09-01T11:58:55.801Z,24.06
2018-09-01T12:00:05.558Z,23.98
2018-09-01T12:01:15.286Z,24.09
2018-09-01T12:02:25.200Z,24.12
2018-09-01T12:03:34.397Z,24.06
2018-09-01T12:04:44.297Z,24.1
2018-09-01T12:05:53.764Z,24.13
2018-09-01T12:07:03.205Z,24.08
2018-09-01T12:08:12.656Z,24.1
2018-09-01T12:09:22.793Z,24.09
2018-09-01T12:10:33.118Z,24.09
2018-09-01T12:11:43.210Z,24.13
2018-09-01T12:12:52.385Z,24.12
2018-09-01T12:14:01.976Z,24.09
2018-09-01T12:15:11.963Z,24.16
2018-09-01T12:16:21.406Z,24.12
2018-09-01T12:17:30.829Z,24.06
2018-09-01T12:18:40.031Z,24.18
2018-09-01T12:19:49.999Z,24.02
2018-09-01T12:20:58.913Z,24.13
2018-09-01T12:22:07.594Z,24.02
2018-09-01T12:23:17.131Z,24.05
2018-09-01T12:24:26.350Z,24.15
2018-09-01T12:25:36.042Z,24.15
2018-09-01T12:26:46.004Z,24.18
2018-09-01T12:27:54.920Z,24.08
2018-09-01T12:29:03.939Z,24.08
2018-09-01T12:30:13.389Z,24.12
2018-09-01T12:31:22.616Z,24.1
2018-09-01T12:32:32.072Z,24.13
2018-09-01T12:33:41.263Z,24.1
2018-09-01T12:34:50.949Z,24.06
2018-09-01T12:35:59.891Z,24.08
2018-09-01T12:37:09.092Z,24.06
2018-09-01T12:38:18.542Z,24.12
2018-09-01T12:39:28.013Z,24.2
2018-09-01T12:40:37.494Z,24.08
2018-09-01T12:41:46.948Z,24.18
2018-09-01T12:42:55.883Z,24.06
2018-09-01T12:44:05.374Z,24.08
2018-09-01T12:45:14.932Z,24.2
2018-09-01T12:46:23.901Z,24.15
2018-09-01T12:47:33.094Z,24.16
2018-09-01T12:48:42.031Z,24.2
2018-09-01T12:49:51.730Z,24.2
2018-09-01T12:51:01.429Z,24.05
2018-09-01T12:52:10.886Z,24.2
2018-09-01T12:53:20.780Z,24.22
2018-09-01T12:54:30.297Z,24.08
2018-09-01T12:55:39.999Z,24.22
2018-09-01T12:56:49.194Z,24.21
2018-09-01T12:57:58.916Z,24.22
2018-09-01T12:59:08.382Z,24.21
2018-09-01T13:00:18.073Z,24.22
2018-09-01T13:01:27.532Z,24.18
2018-09-01T13:02:37.268Z,24.22
2018-09-01T13:03:46.977Z,24.2
2018-09-01T13:04:55.910Z,24.21
2018-09-01T13:06:05.362Z,24.25
2018-09-01T13:07:15.335Z,24.13
2018-09-01T13:08:24.253Z,24.2
2018-09-01T13:09:33.960Z,24.24
2018-09-01T13:10:43.910Z,24.25
2018-09-01T13:11:53.335Z,24.24
2018-09-01T13:13:02.516Z,24.25
2018-09-01T13:14:12.018Z,24.24
2018-09-01T13:15:21.249Z,24.22
2018-09-01T13:16:30.955Z,24.22
2018-09-01T13:17:40.393Z,24.25
2018-09-01T13:18:49.895Z,24.21
2018-09-01T13:19:59.332Z,24.3
2018-09-01T13:21:09.035Z,24.31
2018-09-01T13:22:17.946Z,24.27
2018-09-01T13:23:27.166Z,24.16
2018-09-01T13:24:36.658Z,24.28
2018-09-01T13:25:46.365Z,24.28
2018-09-01T13:26:55.792Z,24.34
2018-09-01T13:28:04.981Z,24.32
2018-09-01T13:29:14.445Z,24.32
2018-09-01T13:30:23.635Z,24.3
2018-09-01T13:31:33.110Z,24.32
2018-09-01T13:32:42.288Z,24.35
2018-09-01T13:33:51.484Z,24.34
2018-09-01T13:35:00.699Z,24.3
2018-09-01T13:36:10.431Z,24.3
2018-09-01T13:37:19.892Z,24.32
2018-09-01T13:38:29.068Z,24.39
2018-09-01T13:39:38.033Z,24.4
2018-09-01T13:40:46.978Z,24.43
2018-09-01T13:41:56.424Z,24.34
2018-09-01T13:43:06.386Z,24.34
2018-09-01T13:44:15.826Z,24.43
2018-09-01T13:45:25.018Z,24.32
2018-09-01T13:46:34.518Z,24.43
2018-09-01T13:47:44.234Z,24.27
2018-09-01T13:48:53.660Z,24.31
2018-09-01T13:50:03.163Z,24.34
2018-09-01T13:51:12.639Z,24.4
2018-09-01T13:52:22.378Z,24.27
2018-09-01T13:53:32.084Z,24.47
2018-09-01T13:54:41.522Z,24.28
2018-09-01T13:55:50.458Z,24.42
2018-09-01T13:56:59.896Z,24.34
2018-09-01T13:58:08.834Z,24.43
2018-09-01T13:59:18.607Z,24.4
2018-09-01T14:00:28.057Z,24.3
2018-09-01T14:01:37.241Z,24.37
2018-09-01T14:02:46.680Z,24.43
2018-09-01T14:03:55.852Z,24.35
2018-09-01T14:05:05.014Z,24.42
2018-09-01T14:06:14.823Z,24.42
2018-09-01T14:07:24.625Z,24.5
2018-09-01T14:08:34.364Z,24.42
2018-09-01T14:09:43.815Z,24.46
2018-09-01T14:10:53.242Z,24.37
2018-09-01T14:12:02.928Z,24.37
2018-09-01T14:13:11.846Z,24.34
2018-09-01T14:14:21.283Z,24.4
2018-09-01T14:15:30.546Z,24.39
2018-09-01T14:16:40.262Z,24.46
2018-09-01T14:17:49.963Z,24.31
2018-09-01T14:18:59.649Z,24.43
2018-09-01T14:20:08.573Z,24.46
2018-09-01T14:21:17.223Z,24.39
2018-09-01T14:22:26.946Z,24.34
2018-09-01T14:23:36.879Z,24.42
2018-09-01T14:24:46.883Z,24.43
2018-09-01T14:25:56.060Z,24.43
2018-09-01T14:27:06.009Z,24.46
2018-09-01T14:28:15.711Z,24.42
2018-09-01T14:29:24.956Z,24.39
2018-09-01T14:30:34.385Z,24.4
2018-09-01T14:31:43.832Z,24.39
2018-09-01T14:32:53.090Z,24.43
2018-09-01T14:34:02.021Z,24.42
2018-09-01T14:35:12.024Z,24.39
2018-09-01T14:36:21.609Z,24.42
2018-09-01T14:37:30.916Z,24.42
2018-09-01T14:38:40.564Z,24.5
2018-09-01T14:39:50.406Z,24.43
2018-09-01T14:40:59.579Z,24.4
2018-09-01T14:42:08.495Z,24.46
2018-09-01T14:43:17.916Z,24.46
2018-09-01T14:44:27.122Z,24.31
2018-09-01T14:45:36.564Z,24.31
2018-09-01T14:46:45.904Z,24.31
2018-09-01T14:47:55.269Z,24.47
2018-09-01T14:49:04.451Z,24.37
2018-09-01T14:50:13.391Z,24.39
2018-09-01T14:51:22.584Z,24.43
2018-09-01T14:52:31.775Z,24.4
2018-09-01T14:53:41.206Z,24.42
2018-09-01T14:54:50.655Z,24.47
2018-09-01T14:56:00.361Z,24.42
2018-09-01T14:57:10.311Z,24.34
2018-09-01T14:58:19.739Z,24.31
2018-09-01T14:59:29.117Z,24.32
2018-09-01T15:00:38.821Z,24.4
2018-09-01T15:01:48.534Z,24.4